createdAt,value
2022-08-31T00:02:01.731Z,3.20
2022-08-31T00:04:32.658Z,3.40
2022-08-31T00:07:01.111Z,3.50
2022-08-31T00:09:31.247Z,3.50
2022-08-31T00:11:59.491Z,3.83
2022-08-31T00:14:28.798Z,3.63
2022-08-31T00:16:57.740Z,5.00
2022-08-31T00:19:26.317Z,3.50
2022-08-31T00:21:55.701Z,3.45
2022-08-31T00:24:26.172Z,3.47
2022-08-31T00:26:54.480Z,3.28
2022-08-31T00:29:23.870Z,3.63
2022-08-31T00:31:52.149Z,3.25
2022-08-31T00:34:22.537Z,3.58
2022-08-31T00:36:50.798Z,3.40
2022-08-31T00:39:20.387Z,3.25
2022-08-31T00:41:48.441Z,3.35
2022-08-31T00:44:16.803Z,3.35
2022-08-31T00:46:45.808Z,3.22
2022-08-31T00:49:18.893Z,3.42
2022-08-31T00:51:51.539Z,3.13
2022-08-31T00:54:25.989Z,3.33
2022-08-31T00:56:55.014Z,3.08
2022-08-31T00:59:24.475Z,3.58
2022-08-31T01:01:52.933Z,3.63
2022-08-31T01:04:20.882Z,3.05
2022-08-31T01:06:50.364Z,3.28
2022-08-31T01:09:23.441Z,3.70
2022-08-31T01:11:51.593Z,3.40
2022-08-31T01:14:20.416Z,3.65
2022-08-31T01:16:52.234Z,3.58
2022-08-31T01:19:31.000Z,3.60
2022-08-31T01:22:08.086Z,3.00
2022-08-31T01:24:40.773Z,3.90
2022-08-31T01:27:09.076Z,3.95
2022-08-31T01:29:37.454Z,3.75
2022-08-31T01:32:06.582Z,3.65
2022-08-31T01:34:35.728Z,3.13
2022-08-31T01:37:04.540Z,3.30
2022-08-31T01:39:32.950Z,3.70
2022-08-31T01:42:02.228Z,3.53
2022-08-31T01:44:30.432Z,4.03
2022-08-31T01:46:58.400Z,4.63
2022-08-31T01:49:28.785Z,3.42
2022-08-31T01:51:57.566Z,3.33
2022-08-31T01:54:27.815Z,3.40
2022-08-31T01:56:56.416Z,3.38
2022-08-31T01:59:34.465Z,3.30
2022-08-31T02:02:21.926Z,3.80
2022-08-31T02:04:50.285Z,3.38
2022-08-31T02:07:21.052Z,3.75
2022-08-31T02:09:49.489Z,3.78
2022-08-31T02:12:21.047Z,3.30
2022-08-31T02:14:53.686Z,3.50
2022-08-31T02:17:22.005Z,3.50
2022-08-31T02:19:50.767Z,3.75
2022-08-31T02:22:19.568Z,3.40
2022-08-31T02:24:47.541Z,3.67
2022-08-31T02:27:15.704Z,3.75
2022-08-31T02:29:43.985Z,3.65
2022-08-31T02:32:15.680Z,3.72
2022-08-31T02:34:47.711Z,3.45
2022-08-31T02:37:16.420Z,3.72
2022-08-31T02:39:45.871Z,3.53
2022-08-31T02:42:18.431Z,3.67
2022-08-31T02:44:46.873Z,4.18
2022-08-31T02:47:16.154Z,3.33
2022-08-31T02:49:53.281Z,3.67
2022-08-31T02:52:21.594Z,3.40
2022-08-31T02:54:50.375Z,3.58
2022-08-31T02:57:18.725Z,4.18
2022-08-31T02:59:46.765Z,3.45
2022-08-31T03:02:18.885Z,3.88
2022-08-31T03:04:47.361Z,3.70
2022-08-31T03:07:18.073Z,3.70
2022-08-31T03:09:47.084Z,3.53
2022-08-31T03:12:16.706Z,3.58
2022-08-31T03:14:45.587Z,3.60
2022-08-31T03:17:13.720Z,3.55
2022-08-31T03:19:43.391Z,3.72
2022-08-31T03:22:14.845Z,3.78
2022-08-31T03:24:44.251Z,3.92
2022-08-31T03:27:12.405Z,3.45
2022-08-31T03:29:42.518Z,4.03
2022-08-31T03:32:17.089Z,3.72
2022-08-31T03:34:49.782Z,3.80
2022-08-31T03:37:18.550Z,3.72
2022-08-31T03:39:47.000Z,3.88
2022-08-31T03:42:15.301Z,3.90
2022-08-31T03:44:43.811Z,4.38
2022-08-31T03:47:21.300Z,3.70
2022-08-31T03:49:53.720Z,4.00
2022-08-31T03:52:28.568Z,4.13
2022-08-31T03:55:02.230Z,3.72
2022-08-31T03:57:32.840Z,3.58
2022-08-31T04:00:01.127Z,3.80
2022-08-31T04:02:41.426Z,4.18
2022-08-31T04:05:43.683Z,3.70
2022-08-31T04:08:30.496Z,3.42
2022-08-31T04:11:44.408Z,3.92
2022-08-31T04:14:32.299Z,3.78
2022-08-31T04:17:19.224Z,3.80
2022-08-31T04:19:52.589Z,3.75
2022-08-31T04:22:43.609Z,3.95
2022-08-31T04:25:23.633Z,4.03
2022-08-31T04:27:54.418Z,3.90
2022-08-31T04:30:22.754Z,4.30
2022-08-31T04:32:54.123Z,3.55
2022-08-31T04:35:23.478Z,3.67
2022-08-31T04:37:53.136Z,4.03
2022-08-31T04:40:26.188Z,4.88
2022-08-31T04:42:59.878Z,4.10
2022-08-31T04:45:28.354Z,4.65
2022-08-31T04:47:56.850Z,4.07
2022-08-31T04:50:26.314Z,3.78
2022-08-31T04:53:11.696Z,3.75
2022-08-31T04:55:41.553Z,4.15
2022-08-31T04:58:13.038Z,5.05
2022-08-31T05:00:43.660Z,4.53
2022-08-31T05:03:31.730Z,4.88
2022-08-31T05:06:00.113Z,4.15
2022-08-31T05:08:30.434Z,4.05
2022-08-31T05:11:00.747Z,4.20
2022-08-31T05:13:29.052Z,4.20
2022-08-31T05:15:58.207Z,4.50
2022-08-31T05:18:28.213Z,4.53
2022-08-31T05:20:59.435Z,4.07
2022-08-31T05:23:29.261Z,4.80
2022-08-31T05:25:57.563Z,4.65
2022-08-31T05:28:26.588Z,4.32
2022-08-31T05:30:54.763Z,3.95
2022-08-31T05:33:32.095Z,3.90
2022-08-31T05:36:02.131Z,4.63
2022-08-31T05:38:31.615Z,4.70
2022-08-31T05:41:00.493Z,4.10
2022-08-31T05:43:29.399Z,4.30
2022-08-31T05:45:58.324Z,4.50
2022-08-31T05:48:29.800Z,4.18
2022-08-31T05:51:02.417Z,4.40
2022-08-31T05:53:32.112Z,4.65
2022-08-31T05:56:02.867Z,4.78
2022-08-31T05:58:32.050Z,4.72
2022-08-31T06:01:01.451Z,4.75
2022-08-31T06:04:02.075Z,5.05
2022-08-31T06:06:31.068Z,5.43
2022-08-31T06:09:00.794Z,5.25
2022-08-31T06:11:31.842Z,5.90
2022-08-31T06:14:01.877Z,6.15
2022-08-31T06:16:32.299Z,7.60
2022-08-31T06:19:03.546Z,7.07
2022-08-31T06:21:35.579Z,7.93
2022-08-31T06:24:07.440Z,8.75
2022-08-31T06:26:37.735Z,9.50
2022-08-31T06:29:12.995Z,8.88
2022-08-31T06:31:47.227Z,9.82
2022-08-31T06:34:21.485Z,10.00
2022-08-31T06:36:49.335Z,10.70
2022-08-31T06:39:40.363Z,11.10
2022-08-31T06:42:34.092Z,11.52
2022-08-31T06:45:06.888Z,10.60
2022-08-31T06:48:09.864Z,11.10
2022-08-31T06:50:41.472Z,12.20
2022-08-31T06:53:09.888Z,11.25
2022-08-31T06:56:07.363Z,12.40
2022-08-31T06:59:14.821Z,11.25
2022-08-31T07:02:00.267Z,13.00
2022-08-31T07:04:38.590Z,12.57
2022-08-31T07:07:11.243Z,12.57
2022-08-31T07:12:11.533Z,12.18
2022-08-31T07:14:40.027Z,13.35
2022-08-31T07:17:09.289Z,12.88
2022-08-31T07:19:37.817Z,12.93
2022-08-31T07:22:15.283Z,12.15
2022-08-31T07:24:46.574Z,12.57
2022-08-31T07:27:16.452Z,12.63
2022-08-31T07:29:55.604Z,11.82
2022-08-31T07:32:25.141Z,11.48
2022-08-31T07:34:59.761Z,11.55
2022-08-31T07:37:49.102Z,11.45
2022-08-31T07:40:35.581Z,11.50
2022-08-31T07:43:06.154Z,10.77
2022-08-31T07:45:39.328Z,10.68
2022-08-31T07:48:08.843Z,11.00
2022-08-31T07:50:57.584Z,12.35
2022-08-31T07:53:47.515Z,11.18
2022-08-31T07:56:46.688Z,11.25
2022-08-31T07:59:18.699Z,10.65
2022-08-31T08:01:47.776Z,11.45
2022-08-31T08:04:25.458Z,10.65
2022-08-31T08:07:16.812Z,10.73
2022-08-31T08:09:50.816Z,10.80
2022-08-31T08:12:42.327Z,11.07
2022-08-31T08:15:18.444Z,10.88
2022-08-31T08:18:03.483Z,11.40
2022-08-31T08:20:37.621Z,10.82
2022-08-31T08:23:13.907Z,9.82
2022-08-31T08:26:02.304Z,9.65
2022-08-31T08:28:50.474Z,8.80
2022-08-31T08:31:23.237Z,9.77
2022-08-31T08:33:53.206Z,9.98
2022-08-31T08:36:21.592Z,9.73
2022-08-31T08:38:53.979Z,9.68
2022-08-31T08:41:28.172Z,10.05
2022-08-31T08:43:58.610Z,8.90
2022-08-31T08:46:40.393Z,10.05
2022-08-31T08:49:19.353Z,9.63
2022-08-31T08:51:58.670Z,9.82
2022-08-31T08:54:32.890Z,9.55
2022-08-31T08:57:16.636Z,10.85
2022-08-31T08:59:49.118Z,11.00
2022-08-31T09:02:25.083Z,11.55
2022-08-31T09:05:15.526Z,11.25
2022-08-31T09:08:29.209Z,10.30
2022-08-31T09:11:12.431Z,10.80
2022-08-31T09:13:53.467Z,11.38
2022-08-31T09:16:40.862Z,11.32
2022-08-31T09:19:15.554Z,10.85
2022-08-31T09:21:48.289Z,11.23
2022-08-31T09:24:19.437Z,9.70
2022-08-31T09:27:18.200Z,10.63
2022-08-31T09:29:48.314Z,9.55
2022-08-31T09:32:26.222Z,8.15
2022-08-31T09:35:00.466Z,7.75
2022-08-31T09:37:34.229Z,8.45
2022-08-31T09:40:16.813Z,7.65
2022-08-31T09:43:04.278Z,8.60
2022-08-31T09:45:41.941Z,8.70
2022-08-31T09:48:11.215Z,8.48
2022-08-31T09:50:45.370Z,7.80
2022-08-31T09:53:37.889Z,8.48
2022-08-31T09:56:15.689Z,8.77
2022-08-31T09:58:46.946Z,8.32
2022-08-31T10:01:21.380Z,8.13
2022-08-31T10:03:50.818Z,8.77
2022-08-31T10:06:45.677Z,7.47
2022-08-31T10:09:33.490Z,7.72
2022-08-31T10:12:05.683Z,10.45
2022-08-31T10:14:41.403Z,7.65
2022-08-31T10:17:15.347Z,6.50
2022-08-31T10:19:53.440Z,6.72
2022-08-31T10:22:32.592Z,6.72
2022-08-31T11:17:27.403Z,5.07
2022-08-31T11:22:52.413Z,5.13
2022-08-31T11:25:47.424Z,5.60
2022-08-31T11:28:32.287Z,4.78
2022-08-31T11:31:02.667Z,5.45
2022-08-31T11:33:32.375Z,4.63
2022-08-31T11:36:07.270Z,4.95
2022-08-31T11:38:53.542Z,4.90
2022-08-31T11:41:39.330Z,5.30
2022-08-31T11:44:09.591Z,4.63
2022-08-31T11:46:50.719Z,4.72
2022-08-31T11:49:43.871Z,4.78
2022-08-31T11:52:35.222Z,3.92
2022-08-31T11:55:21.182Z,3.95
2022-08-31T11:58:31.709Z,4.10
2022-08-31T12:01:03.720Z,4.07
2022-08-31T12:03:40.708Z,3.67
2022-08-31T12:06:13.664Z,4.22
2022-08-31T12:08:53.076Z,4.07
2022-08-31T12:11:37.234Z,4.30
2022-08-31T12:14:15.963Z,4.25
2022-08-31T12:16:57.310Z,4.05
2022-08-31T12:20:01.754Z,4.22
2022-08-31T12:23:29.994Z,4.53
2022-08-31T12:26:11.140Z,3.97
2022-08-31T12:29:01.957Z,3.60
2022-08-31T12:31:30.516Z,3.42
2022-08-31T12:34:04.883Z,3.72
2022-08-31T12:36:37.041Z,3.83
2022-08-31T12:39:12.821Z,4.23
2022-08-31T12:41:51.972Z,4.20
2022-08-31T12:44:22.760Z,3.97
2022-08-31T12:47:02.652Z,4.15
2022-08-31T12:49:54.445Z,3.70
2022-08-31T12:52:40.385Z,4.22
2022-08-31T12:55:23.421Z,4.50
2022-08-31T12:58:07.160Z,4.15
2022-08-31T13:00:38.780Z,3.50
2022-08-31T13:03:22.090Z,3.75
2022-08-31T13:06:05.801Z,4.00
2022-08-31T13:08:39.257Z,4.32
2022-08-31T13:11:25.813Z,3.67
2022-08-31T13:14:14.068Z,3.22
2022-08-31T13:16:45.303Z,3.42
2022-08-31T13:19:25.903Z,3.50
2022-08-31T13:21:57.864Z,3.78
2022-08-31T13:24:30.905Z,3.80
2022-08-31T13:29:44.144Z,3.60
2022-08-31T13:32:16.040Z,3.25
2022-08-31T13:34:43.951Z,3.70
2022-08-31T13:37:19.002Z,3.67
2022-08-31T13:39:50.479Z,4.68
2022-08-31T13:42:35.521Z,4.70
2022-08-31T13:45:09.372Z,4.05
2022-08-31T13:47:55.261Z,3.78
2022-08-31T13:50:32.934Z,3.60
2022-08-31T13:53:26.248Z,3.95
2022-08-31T13:55:53.031Z,3.80
2022-08-31T13:58:29.081Z,3.97
2022-08-31T14:01:22.994Z,3.80
2022-08-31T14:03:57.424Z,3.78
2022-08-31T14:06:32.953Z,4.18
2022-08-31T14:09:05.870Z,3.60
2022-08-31T14:11:35.624Z,3.05
2022-08-31T14:14:08.753Z,4.03
2022-08-31T14:16:43.773Z,3.53
2022-08-31T14:19:31.081Z,3.75
2022-08-31T14:22:16.281Z,3.70
2022-08-31T14:24:45.882Z,3.50
2022-08-31T14:27:15.329Z,3.97
2022-08-31T14:29:44.812Z,3.33
2022-08-31T14:32:18.594Z,3.50
2022-08-31T14:34:49.072Z,3.47
2022-08-31T14:37:22.556Z,3.40
2022-08-31T14:39:53.764Z,3.20
2022-08-31T14:42:25.682Z,3.35
2022-08-31T14:45:01.054Z,3.55
2022-08-31T14:47:31.650Z,3.35
2022-08-31T14:50:05.434Z,3.53
2022-08-31T14:52:34.686Z,3.60
2022-08-31T14:55:03.128Z,3.25
2022-08-31T14:57:34.434Z,3.33
2022-08-31T15:00:07.077Z,3.50
2022-08-31T15:02:36.182Z,3.75
2022-08-31T15:05:08.187Z,3.88
2022-08-31T15:07:39.374Z,3.53
2022-08-31T15:10:11.875Z,3.00
2022-08-31T15:12:39.921Z,3.30
2022-08-31T15:15:10.984Z,3.17
2022-08-31T15:17:40.246Z,3.25
2022-08-31T15:20:11.348Z,3.25
2022-08-31T15:22:40.748Z,3.92
2022-08-31T15:25:11.934Z,3.78
2022-08-31T15:27:44.469Z,3.55
2022-08-31T15:30:16.266Z,3.35
2022-08-31T15:32:45.354Z,3.60
2022-08-31T15:35:18.825Z,3.22
2022-08-31T15:37:56.536Z,2.85
2022-08-31T15:40:27.955Z,3.53
2022-08-31T15:42:59.750Z,3.15
2022-08-31T15:45:31.119Z,3.42
2022-08-31T15:48:17.264Z,3.30
2022-08-31T15:50:52.665Z,3.63
2022-08-31T15:53:25.501Z,3.90
2022-08-31T15:55:53.443Z,3.70
2022-08-31T15:58:24.819Z,3.60
2022-08-31T16:00:54.470Z,3.72
2022-08-31T16:03:22.719Z,11.57
2022-08-31T16:05:51.244Z,5.00
2022-08-31T16:08:19.446Z,4.55
2022-08-31T16:10:48.431Z,3.50
2022-08-31T16:13:17.026Z,3.15
2022-08-31T16:15:51.284Z,3.28
2022-08-31T16:18:22.216Z,3.15
2022-08-31T16:20:51.807Z,3.03
2022-08-31T16:23:21.222Z,2.95
2022-08-31T16:25:49.560Z,3.05
2022-08-31T16:28:19.900Z,3.40
2022-08-31T16:30:48.606Z,3.30
2022-08-31T16:33:20.618Z,3.38
2022-08-31T16:35:48.743Z,3.67
2022-08-31T16:38:16.959Z,3.33
2022-08-31T16:40:45.485Z,3.60
2022-08-31T16:43:14.267Z,3.78
2022-08-31T16:45:42.917Z,4.03
2022-08-31T16:48:29.840Z,4.05
2022-08-31T16:51:02.781Z,4.15
2022-08-31T16:53:31.967Z,4.03
2022-08-31T16:56:00.216Z,4.13
2022-08-31T16:58:50.520Z,3.95
2022-08-31T17:01:20.934Z,3.95
2022-08-31T17:03:52.616Z,3.70
2022-08-31T17:06:22.306Z,4.35
2022-08-31T17:08:54.569Z,4.30
2022-08-31T17:11:25.347Z,4.20
2022-08-31T17:13:58.489Z,3.78
2022-08-31T17:16:29.454Z,4.55
2022-08-31T17:19:00.239Z,5.35
2022-08-31T17:21:32.630Z,4.57
2022-08-31T17:24:03.610Z,4.32
2022-08-31T17:26:35.122Z,4.55
2022-08-31T17:29:09.659Z,4.60
2022-08-31T17:31:42.426Z,4.35
2022-08-31T17:34:12.631Z,4.70
2022-08-31T17:36:43.471Z,3.70
2022-08-31T17:39:12.224Z,4.30
2022-08-31T17:41:42.759Z,3.92
2022-08-31T17:44:18.552Z,4.22
2022-08-31T17:46:49.739Z,3.90
2022-08-31T17:49:20.298Z,3.83
2022-08-31T17:51:50.988Z,3.75
2022-08-31T17:54:22.076Z,3.72
2022-08-31T17:56:53.537Z,3.95
2022-08-31T17:59:25.286Z,3.20
2022-08-31T18:01:56.019Z,3.65
2022-08-31T18:04:26.409Z,4.03
2022-08-31T18:06:57.293Z,4.85
2022-08-31T18:09:27.768Z,3.85
2022-08-31T18:11:56.667Z,4.50
2022-08-31T18:14:28.087Z,4.38
2022-08-31T18:16:59.977Z,4.57
2022-08-31T18:19:32.777Z,4.40
2022-08-31T18:22:03.991Z,4.63
2022-08-31T18:24:35.597Z,5.00
2022-08-31T18:27:07.224Z,4.70
2022-08-31T18:29:36.107Z,5.07
2022-08-31T18:32:08.859Z,4.90
2022-08-31T18:34:40.292Z,5.25
2022-08-31T18:37:11.048Z,5.25
2022-08-31T18:39:54.096Z,5.28
2022-08-31T18:42:42.777Z,5.22
2022-08-31T18:45:19.895Z,5.38
2022-08-31T18:50:44.938Z,5.18
2022-08-31T18:53:29.574Z,5.35
2022-08-31T18:56:00.643Z,5.78
2022-08-31T18:58:30.402Z,5.78
2022-08-31T19:01:00.320Z,5.55
2022-08-31T19:03:29.663Z,5.30
2022-08-31T19:06:01.421Z,5.25
2022-08-31T19:08:32.043Z,5.75
2022-08-31T19:11:01.208Z,5.85
2022-08-31T19:13:31.399Z,5.85
2022-08-31T19:16:03.815Z,5.75
2022-08-31T19:18:36.604Z,5.25
2022-08-31T19:21:15.421Z,6.00
2022-08-31T19:23:45.892Z,5.15
2022-08-31T19:26:23.580Z,5.00
2022-08-31T19:28:52.017Z,5.13
2022-08-31T19:31:23.165Z,5.47
2022-08-31T19:33:56.465Z,5.55
2022-08-31T19:38:56.405Z,5.70
2022-08-31T19:41:28.107Z,5.68
2022-08-31T19:44:07.626Z,4.97
2022-08-31T19:46:39.303Z,5.35
2022-08-31T19:49:11.171Z,5.20
2022-08-31T19:51:42.183Z,5.32
2022-08-31T19:54:13.149Z,5.68
2022-08-31T19:56:42.986Z,5.28
2022-08-31T19:59:13.380Z,5.28
2022-08-31T20:01:43.974Z,5.15
2022-08-31T20:04:16.640Z,5.07
2022-08-31T20:06:46.242Z,5.22
2022-08-31T20:09:16.397Z,4.93
2022-08-31T20:11:47.736Z,5.57
2022-08-31T20:14:16.806Z,5.35
2022-08-31T20:16:46.643Z,5.63
2022-08-31T20:19:21.091Z,5.47
2022-08-31T20:21:53.977Z,5.55
2022-08-31T20:24:26.808Z,4.95
2022-08-31T20:27:09.012Z,6.38
2022-08-31T20:29:38.873Z,5.45
2022-08-31T20:32:08.054Z,5.28
2022-08-31T20:34:38.381Z,4.85
2022-08-31T20:37:07.805Z,5.18
2022-08-31T20:39:37.324Z,5.32
2022-08-31T20:42:07.204Z,4.97
2022-08-31T20:44:37.751Z,4.93
2022-08-31T20:47:25.573Z,5.10
2022-08-31T20:49:58.652Z,5.78
2022-08-31T20:52:29.384Z,5.80
2022-08-31T20:55:02.471Z,4.65
2022-08-31T20:57:32.823Z,4.85
2022-08-31T21:00:05.081Z,4.65
2022-08-31T21:02:34.833Z,4.82
2022-08-31T21:05:33.892Z,4.95
2022-08-31T21:07:52.341Z,4.90
2022-08-31T21:10:36.115Z,4.45
2022-08-31T21:13:09.158Z,5.18
2022-08-31T21:15:41.963Z,4.53
2022-08-31T21:18:10.273Z,4.57
2022-08-31T21:20:38.592Z,4.88
2022-08-31T21:23:12.821Z,5.10
2022-08-31T21:25:45.887Z,4.68
2022-08-31T21:28:17.435Z,4.25
2022-08-31T21:30:49.196Z,4.55
2022-08-31T21:33:17.521Z,4.55
2022-08-31T21:35:45.578Z,5.10
2022-08-31T21:38:13.754Z,4.22
2022-08-31T21:40:49.923Z,4.95
2022-08-31T21:43:18.515Z,4.80
2022-08-31T21:45:46.610Z,4.40
2022-08-31T21:48:14.880Z,4.90
2022-08-31T21:50:43.881Z,3.95
2022-08-31T21:53:12.966Z,4.45
2022-08-31T21:55:40.927Z,4.15
2022-08-31T21:58:10.918Z,4.47
2022-08-31T22:00:42.116Z,4.38
2022-08-31T22:03:10.422Z,4.65
2022-08-31T22:05:41.739Z,4.53
2022-08-31T22:08:10.340Z,4.53
2022-08-31T22:10:41.005Z,4.57
2022-08-31T22:13:12.547Z,4.38
2022-08-31T22:15:42.664Z,4.55
2022-08-31T22:18:58.313Z,4.70
2022-08-31T22:20:59.814Z,4.40
2022-08-31T22:23:28.502Z,4.35
2022-08-31T22:25:57.128Z,4.65
2022-08-31T22:28:27.765Z,4.72
2022-08-31T22:30:56.244Z,4.18
2022-08-31T22:33:24.213Z,4.05
2022-08-31T22:35:52.284Z,4.20
2022-08-31T22:38:20.357Z,4.65
2022-08-31T22:40:50.077Z,4.30
2022-08-31T22:43:18.843Z,4.20
2022-08-31T22:45:49.102Z,4.10
2022-08-31T22:48:17.256Z,4.30
2022-08-31T22:50:45.619Z,4.28
2022-08-31T22:53:14.267Z,4.10
2022-08-31T22:55:43.212Z,3.90
2022-08-31T22:58:12.589Z,4.32
2022-08-31T23:00:41.130Z,4.47
2022-08-31T23:03:13.594Z,4.80
2022-08-31T23:05:43.622Z,4.50
2022-08-31T23:08:12.489Z,4.38
2022-08-31T23:10:41.102Z,4.38
2022-08-31T23:13:09.172Z,4.70
2022-08-31T23:15:38.397Z,4.28
2022-08-31T23:18:09.838Z,4.43
2022-08-31T23:20:41.942Z,4.45
2022-08-31T23:23:11.039Z,4.15
2022-08-31T23:25:40.460Z,3.90
2022-08-31T23:28:08.767Z,4.05
2022-08-31T23:30:40.331Z,4.05
2022-08-31T23:33:09.885Z,4.78
2022-08-31T23:35:40.985Z,4.00
2022-08-31T23:38:10.687Z,3.73
2022-08-31T23:40:38.862Z,4.28
2022-08-31T23:43:11.020Z,4.13
2022-08-31T23:45:41.112Z,4.35
2022-08-31T23:48:09.640Z,4.20
2022-08-31T23:50:38.889Z,3.97
2022-08-31T23:53:11.872Z,4.13
2022-08-31T23:55:43.718Z,4.00
2022-08-31T23:58:14.216Z,4.53
